createdAt,value
2022-08-12T00:00:04.239Z,104.75
2022-08-12T00:00:59.411Z,103.26
2022-08-12T00:02:03.693Z,103.65
2022-08-12T00:02:51.520Z,105.35
2022-08-12T00:03:46.432Z,103.46
2022-08-12T00:04:41.649Z,105.02
2022-08-12T00:05:37.407Z,102.88
2022-08-12T00:06:33.613Z,102.32
2022-08-12T00:07:28.399Z,103.14
2022-08-12T00:08:32.035Z,102.50
2022-08-12T00:09:25.742Z,100.41
2022-08-12T00:10:15.839Z,102.95
2022-08-12T00:11:12.626Z,103.84
2022-08-12T00:12:04.837Z,103.26
2022-08-12T00:13:02.171Z,102.57
2022-08-12T00:13:57.237Z,105.08
2022-08-12T00:14:52.214Z,107.11
2022-08-12T00:15:47.264Z,107.52
2022-08-12T00:16:42.337Z,108.64
2022-08-12T00:17:37.349Z,109.93
2022-08-12T00:18:32.465Z,108.15
2022-08-12T00:19:27.546Z,107.04
2022-08-12T00:20:22.624Z,108.57
2022-08-12T00:21:17.684Z,109.71
2022-08-12T00:22:12.717Z,111.92
2022-08-12T00:23:07.781Z,110.59
2022-08-12T00:24:02.868Z,111.77
2022-08-12T00:24:57.907Z,113.52
2022-08-12T00:26:21.360Z,119.28
2022-08-12T00:26:49.876Z,122.52
2022-08-12T00:27:44.582Z,120.66
2022-08-12T00:28:40.054Z,117.85
2022-08-12T00:29:35.132Z,114.93
2022-08-12T00:30:30.281Z,116.53
2022-08-12T00:31:25.481Z,116.45
2022-08-12T00:32:35.287Z,114.14
2022-08-12T00:33:18.251Z,110.81
2022-08-12T00:34:12.545Z,108.86
2022-08-12T00:35:08.707Z,108.36
2022-08-12T00:36:03.499Z,108.36
2022-08-12T00:37:02.801Z,108.29
2022-08-12T00:37:55.483Z,108.71
2022-08-12T00:38:49.750Z,108.57
2022-08-12T00:39:45.541Z,106.15
2022-08-12T00:40:40.688Z,105.15
2022-08-12T00:41:36.043Z,104.23
2022-08-12T00:42:32.029Z,101.38
2022-08-12T00:43:27.095Z,98.80
2022-08-12T00:44:22.218Z,97.70
2022-08-12T00:45:18.522Z,96.79
2022-08-12T00:46:13.771Z,97.13
2022-08-12T00:47:09.434Z,97.59
2022-08-12T00:48:05.145Z,97.25
2022-08-12T00:49:01.870Z,97.36
2022-08-12T00:49:57.118Z,96.24
2022-08-12T00:50:52.257Z,95.85
2022-08-12T00:51:47.368Z,96.35
2022-08-12T00:52:42.345Z,97.19
2022-08-12T00:53:37.467Z,97.42
2022-08-12T00:54:32.606Z,96.79
2022-08-12T00:55:27.617Z,97.93
2022-08-12T00:56:22.681Z,99.21
2022-08-12T00:57:17.700Z,99.86
2022-08-12T00:58:12.695Z,101.26
2022-08-12T00:59:07.733Z,102.00
2022-08-12T01:00:02.801Z,104.43
2022-08-12T01:00:57.878Z,105.42
2022-08-12T01:02:10.386Z,106.49
2022-08-12T01:02:48.991Z,108.08
2022-08-12T01:03:43.064Z,108.29
2022-08-12T01:04:38.122Z,107.66
2022-08-12T01:05:33.146Z,108.64
2022-08-12T01:06:28.213Z,106.29
2022-08-12T01:07:26.647Z,106.29
2022-08-12T01:08:21.805Z,102.88
2022-08-12T01:09:16.990Z,101.57
2022-08-12T01:10:12.193Z,100.53
2022-08-12T01:11:07.340Z,98.98
2022-08-12T01:12:02.706Z,98.57
2022-08-12T01:13:19.466Z,98.80
2022-08-12T01:13:53.969Z,98.98
2022-08-12T01:14:48.127Z,98.45
2022-08-12T01:15:43.348Z,98.57
2022-08-12T01:16:38.476Z,100.65
2022-08-12T01:17:36.652Z,101.44
2022-08-12T01:18:31.768Z,99.27
2022-08-12T01:19:26.865Z,99.93
2022-08-12T01:20:22.012Z,100.41
2022-08-12T01:21:17.625Z,100.53
2022-08-12T01:22:12.757Z,101.38
2022-08-12T01:23:07.935Z,101.94
2022-08-12T01:24:29.745Z,100.83
2022-08-12T01:24:59.705Z,99.81
2022-08-12T01:25:56.209Z,99.75
2022-08-12T01:26:49.104Z,101.01
2022-08-12T01:27:44.306Z,101.14
2022-08-12T01:28:39.580Z,103.20
2022-08-12T01:29:34.847Z,103.71
2022-08-12T01:30:29.956Z,103.84
2022-08-12T01:31:25.148Z,102.76
2022-08-12T01:32:20.285Z,102.19
2022-08-12T01:33:15.565Z,99.27
2022-08-12T01:34:35.371Z,97.42
2022-08-12T01:35:06.846Z,95.79
2022-08-12T01:36:08.438Z,95.30
2022-08-12T01:36:57.170Z,94.67
2022-08-12T01:37:51.384Z,93.72
2022-08-12T01:38:46.458Z,92.78
2022-08-12T01:40:35.754Z,92.37
2022-08-12T01:40:39.114Z,91.06
2022-08-12T01:41:32.145Z,90.37
2022-08-12T01:42:27.122Z,91.76
2022-08-12T01:43:22.346Z,91.86
2022-08-12T01:44:20.572Z,91.06
2022-08-12T01:45:12.630Z,91.36
2022-08-12T01:46:07.979Z,90.86
2022-08-12T01:47:02.967Z,89.78
2022-08-12T01:47:58.078Z,89.69
2022-08-12T01:48:53.204Z,91.86
2022-08-12T01:49:48.309Z,92.78
2022-08-12T01:50:43.529Z,91.86
2022-08-12T01:52:15.217Z,92.37
2022-08-12T01:52:34.709Z,93.61
2022-08-12T01:53:28.753Z,92.99
2022-08-12T01:54:24.876Z,93.30
2022-08-12T01:55:18.959Z,94.03
2022-08-12T01:56:13.914Z,94.57
2022-08-12T01:57:08.921Z,95.65
2022-08-12T01:58:04.010Z,94.33
2022-08-12T01:58:59.089Z,95.58
2022-08-12T01:59:55.192Z,94.76
2022-08-12T02:00:54.868Z,95.63
2022-08-12T02:01:46.551Z,95.79
2022-08-12T02:02:40.762Z,96.24
2022-08-12T02:03:36.276Z,96.13
2022-08-12T02:04:31.385Z,97.19
2022-08-12T02:05:26.641Z,95.68
2022-08-12T02:06:21.744Z,96.18
2022-08-12T02:07:16.863Z,97.13
2022-08-12T02:08:12.913Z,99.21
2022-08-12T02:09:08.140Z,98.16
2022-08-12T02:10:03.297Z,97.19
2022-08-12T02:10:58.395Z,96.85
2022-08-12T02:11:53.862Z,98.86
2022-08-12T02:12:48.833Z,99.51
2022-08-12T02:13:49.288Z,97.93
2022-08-12T02:14:40.132Z,96.18
2022-08-12T02:15:34.281Z,97.99
2022-08-12T02:16:29.372Z,98.16
2022-08-12T02:17:54.675Z,99.33
2022-08-12T02:18:20.522Z,99.39
2022-08-12T02:19:22.842Z,99.63
2022-08-12T02:20:10.661Z,98.28
2022-08-12T02:21:04.693Z,98.92
2022-08-12T02:21:59.830Z,98.63
2022-08-12T02:22:54.850Z,98.33
2022-08-12T02:23:49.964Z,98.92
2022-08-12T02:24:45.048Z,99.09
2022-08-12T02:25:40.152Z,97.42
2022-08-12T02:26:35.160Z,97.64
2022-08-12T02:27:30.270Z,98.22
2022-08-12T02:28:25.249Z,98.51
2022-08-12T02:29:20.354Z,98.86
2022-08-12T02:30:15.337Z,99.21
2022-08-12T02:31:10.357Z,99.93
2022-08-12T02:32:05.446Z,99.09
2022-08-12T02:33:00.558Z,98.05
2022-08-12T02:33:55.546Z,96.63
2022-08-12T02:34:50.637Z,96.02
2022-08-12T02:35:46.815Z,95.25
2022-08-12T02:36:41.935Z,95.68
2022-08-12T02:37:37.138Z,96.18
2022-08-12T02:38:32.299Z,96.85
2022-08-12T02:39:27.409Z,97.42
2022-08-12T02:40:22.517Z,100.77
2022-08-12T02:41:17.723Z,100.83
2022-08-12T02:42:12.873Z,98.51
2022-08-12T02:43:08.261Z,97.87
2022-08-12T02:44:03.961Z,97.08
2022-08-12T02:44:59.212Z,96.18
2022-08-12T02:45:55.042Z,96.29
2022-08-12T02:46:50.127Z,96.24
2022-08-12T02:47:58.896Z,95.68
2022-08-12T02:48:42.173Z,95.74
2022-08-12T02:49:36.348Z,95.54
2022-08-12T02:50:31.446Z,94.49
2022-08-12T02:51:27.911Z,94.82
2022-08-12T02:52:23.069Z,95.52
2022-08-12T02:53:18.872Z,95.36
2022-08-12T02:54:13.989Z,96.24
2022-08-12T02:55:09.123Z,95.54
2022-08-12T02:56:04.909Z,94.03
2022-08-12T02:57:00.072Z,92.57
2022-08-12T02:57:55.899Z,93.51
2022-08-12T02:58:50.989Z,95.65
2022-08-12T02:59:46.293Z,94.17
2022-08-12T03:00:42.031Z,94.67
2022-08-12T03:01:47.815Z,93.09
2022-08-12T03:02:33.305Z,92.78
2022-08-12T03:03:27.494Z,93.82
2022-08-12T03:04:23.284Z,94.25
2022-08-12T03:05:18.415Z,93.61
2022-08-12T03:06:13.637Z,92.68
2022-08-12T03:07:10.035Z,91.16
2022-08-12T03:08:05.153Z,90.76
2022-08-12T03:09:02.008Z,90.37
2022-08-12T03:10:04.032Z,90.37
2022-08-12T03:10:52.743Z,91.36
2022-08-12T03:11:48.760Z,91.76
2022-08-12T03:12:50.741Z,93.09
2022-08-12T03:13:39.019Z,92.16
2022-08-12T03:14:33.203Z,90.46
2022-08-12T03:15:29.702Z,87.61
2022-08-12T03:16:24.831Z,87.16
2022-08-12T03:17:20.765Z,85.99
2022-08-12T03:18:26.041Z,86.17
2022-08-12T03:19:12.054Z,86.98
2022-08-12T03:20:10.974Z,87.34
2022-08-12T03:21:02.281Z,87.89
2022-08-12T03:22:08.825Z,88.45
2022-08-12T03:22:54.775Z,90.17
2022-08-12T03:23:48.993Z,90.17
2022-08-12T03:24:44.799Z,90.96
2022-08-12T03:25:39.879Z,91.96
2022-08-12T03:26:35.043Z,91.56
2022-08-12T03:27:30.843Z,90.56
2022-08-12T03:28:26.031Z,90.07
2022-08-12T03:29:21.808Z,86.61
2022-08-12T03:30:17.016Z,84.85
2022-08-12T03:31:12.276Z,85.90
2022-08-12T03:32:08.082Z,85.99
2022-08-12T03:33:04.275Z,86.61
2022-08-12T03:34:02.241Z,86.79
2022-08-12T03:34:53.485Z,85.72
2022-08-12T03:35:48.475Z,84.77
2022-08-12T03:36:43.476Z,84.17
2022-08-12T03:37:38.590Z,83.58
2022-08-12T03:38:33.600Z,83.66
2022-08-12T03:39:36.158Z,83.58
2022-08-12T03:40:24.696Z,82.50
2022-08-12T03:41:18.740Z,81.86
2022-08-12T03:42:13.836Z,82.67
2022-08-12T03:43:09.070Z,83.16
2022-08-12T03:44:06.613Z,83.41
2022-08-12T03:45:01.742Z,83.16
2022-08-12T03:45:57.007Z,83.00
2022-08-12T03:46:52.823Z,82.83
2022-08-12T03:47:47.970Z,80.82
2022-08-12T03:48:43.084Z,78.84
2022-08-12T03:49:39.524Z,79.14
2022-08-12T03:50:34.702Z,80.13
2022-08-12T03:51:30.557Z,79.97
2022-08-12T03:52:25.712Z,80.44
2022-08-12T03:53:20.922Z,80.44
2022-08-12T03:54:16.682Z,80.82
2022-08-12T03:55:11.869Z,81.70
2022-08-12T03:56:07.734Z,82.26
2022-08-12T03:57:02.777Z,82.58
2022-08-12T03:57:57.998Z,82.58
2022-08-12T03:58:53.739Z,80.98
2022-08-12T03:59:49.023Z,81.54
2022-08-12T04:00:44.211Z,82.67
2022-08-12T04:01:40.734Z,82.75
2022-08-12T04:02:34.664Z,82.42
2022-08-12T04:03:29.832Z,81.62
2022-08-12T04:04:25.028Z,80.98
2022-08-12T04:05:21.477Z,79.74
2022-08-12T04:06:16.120Z,78.76
2022-08-12T04:07:12.357Z,78.03
2022-08-12T04:08:07.387Z,77.02
2022-08-12T04:09:02.577Z,76.11
2022-08-12T04:09:57.786Z,75.62
2022-08-12T04:10:53.036Z,75.76
2022-08-12T04:11:48.141Z,75.15
2022-08-12T04:12:43.321Z,75.76
2022-08-12T04:13:38.255Z,76.11
2022-08-12T04:14:33.269Z,76.60
2022-08-12T04:15:28.297Z,77.09
2022-08-12T04:16:23.295Z,77.45
2022-08-12T04:17:18.315Z,75.21
2022-08-12T04:18:13.353Z,75.01
2022-08-12T04:19:08.334Z,75.15
2022-08-12T04:20:03.344Z,76.18
2022-08-12T04:20:58.374Z,77.96
2022-08-12T04:22:02.224Z,80.59
2022-08-12T04:22:50.249Z,81.78
2022-08-12T04:23:48.778Z,84.34
2022-08-12T04:24:43.862Z,85.90
2022-08-12T04:25:40.275Z,87.52
2022-08-12T04:26:34.495Z,90.17
2022-08-12T04:27:29.774Z,91.16
2022-08-12T04:28:25.083Z,92.37
2022-08-12T04:29:20.366Z,92.16
2022-08-12T04:30:30.427Z,91.46
2022-08-12T04:31:12.374Z,92.16
2022-08-12T04:32:06.682Z,93.72
2022-08-12T04:33:01.977Z,94.57
2022-08-12T04:33:57.269Z,94.89
2022-08-12T04:34:52.531Z,94.35
2022-08-12T04:35:47.910Z,91.46
2022-08-12T04:36:43.083Z,91.26
2022-08-12T04:37:59.314Z,90.17
2022-08-12T04:38:34.831Z,89.30
2022-08-12T04:39:29.199Z,88.36
2022-08-12T04:40:28.003Z,88.36
2022-08-12T04:41:19.439Z,84.68
2022-08-12T04:42:14.705Z,84.34
2022-08-12T04:44:00.813Z,84.08
2022-08-12T04:44:05.796Z,83.33
2022-08-12T04:44:59.918Z,83.08
2022-08-12T04:45:54.965Z,81.30
2022-08-12T04:46:51.547Z,79.97
2022-08-12T04:47:46.746Z,78.54
2022-08-12T04:48:42.094Z,78.91
2022-08-12T04:49:37.395Z,79.21
2022-08-12T04:50:36.034Z,79.44
2022-08-12T04:51:28.383Z,78.91
2022-08-12T04:52:23.774Z,78.99
2022-08-12T04:53:19.064Z,78.69
2022-08-12T04:54:14.392Z,77.02
2022-08-12T04:55:09.744Z,76.25
2022-08-12T04:56:05.070Z,75.97
2022-08-12T04:57:03.506Z,75.76
2022-08-12T04:57:55.813Z,76.81
2022-08-12T04:58:52.775Z,76.81
2022-08-12T04:59:48.626Z,77.45
2022-08-12T05:00:42.447Z,77.59
2022-08-12T05:01:37.808Z,78.18
2022-08-12T05:02:33.193Z,78.18
2022-08-12T05:03:28.428Z,79.67
2022-08-12T05:04:24.810Z,80.59
2022-08-12T05:05:19.189Z,78.32
2022-08-12T05:06:20.825Z,75.49
2022-08-12T05:07:12.393Z,76.11
2022-08-12T05:08:06.771Z,76.53
2022-08-12T05:09:02.218Z,76.46
2022-08-12T05:10:02.472Z,76.25
2022-08-12T05:10:53.382Z,77.31
2022-08-12T05:11:53.739Z,76.60
2022-08-12T05:12:45.235Z,76.25
2022-08-12T05:13:39.487Z,75.62
2022-08-12T05:14:37.599Z,76.88
2022-08-12T05:15:30.459Z,77.02
2022-08-12T05:16:30.807Z,76.18
2022-08-12T05:17:22.069Z,76.74
2022-08-12T05:18:19.533Z,74.88
2022-08-12T05:19:12.895Z,65.58
2022-08-12T05:20:07.595Z,65.43
2022-08-12T05:21:01.652Z,66.79
2022-08-12T05:21:56.710Z,69.46
2022-08-12T05:22:54.714Z,71.29
2022-08-12T05:23:47.844Z,73.56
2022-08-12T05:24:42.034Z,74.48
2022-08-12T05:25:40.017Z,75.62
2022-08-12T05:26:34.986Z,74.81
2022-08-12T05:27:29.983Z,73.95
2022-08-12T05:28:25.055Z,72.35
2022-08-12T05:30:06.335Z,71.79
2022-08-12T05:30:16.175Z,72.16
2022-08-12T05:31:10.260Z,73.17
2022-08-12T05:32:05.253Z,73.69
2022-08-12T05:33:01.462Z,74.28
2022-08-12T05:33:56.838Z,74.81
2022-08-12T05:34:52.262Z,76.25
2022-08-12T05:35:47.779Z,76.60
2022-08-12T05:36:43.031Z,76.88
2022-08-12T05:37:38.420Z,77.45
2022-08-12T05:38:33.811Z,77.52
2022-08-12T05:39:29.408Z,74.08
2022-08-12T05:40:24.598Z,75.90
2022-08-12T05:41:19.970Z,79.06
2022-08-12T05:42:15.378Z,83.16
2022-08-12T05:43:10.769Z,85.99
2022-08-12T05:44:06.180Z,85.90
2022-08-12T05:45:01.640Z,87.16
2022-08-12T05:45:56.990Z,85.29
2022-08-12T05:46:52.358Z,85.11
2022-08-12T05:47:53.545Z,87.89
2022-08-12T05:48:45.397Z,87.07
2022-08-12T05:49:39.706Z,88.64
2022-08-12T05:50:35.083Z,97.99
2022-08-12T05:51:39.947Z,104.69
2022-08-12T05:52:26.975Z,118.94
2022-08-12T05:53:21.458Z,124.63
2022-08-12T05:54:17.170Z,133.07
2022-08-12T05:55:12.219Z,134.68
2022-08-12T05:56:07.406Z,144.86
2022-08-12T05:57:02.473Z,158.48
2022-08-12T05:57:57.492Z,164.90
2022-08-12T05:58:52.505Z,171.86
2022-08-12T05:59:47.575Z,170.11
2022-08-12T06:00:42.608Z,167.38
2022-08-12T06:02:10.787Z,168.90
2022-08-12T06:02:33.723Z,185.62
2022-08-12T06:03:27.859Z,199.87
2022-08-12T06:04:22.907Z,207.32
2022-08-12T06:05:17.949Z,218.07
2022-08-12T06:06:12.965Z,226.81
2022-08-12T06:08:00.869Z,229.03
2022-08-12T06:08:05.002Z,228.07
2022-08-12T06:08:59.339Z,234.93
2022-08-12T06:09:54.801Z,232.43
2022-08-12T06:10:50.484Z,232.10
2022-08-12T06:12:05.869Z,237.31
2022-08-12T06:12:42.391Z,234.76
2022-08-12T06:13:54.551Z,230.48
2022-08-12T06:14:33.169Z,243.65
2022-08-12T06:15:28.116Z,252.27
2022-08-12T06:16:23.534Z,256.81
2022-08-12T06:17:18.988Z,253.05
2022-08-12T06:18:16.427Z,243.83
2022-08-12T06:19:09.119Z,235.27
2022-08-12T06:20:26.335Z,235.27
2022-08-12T06:21:02.073Z,226.97
2022-08-12T06:21:54.232Z,238.00
2022-08-12T06:22:49.247Z,264.68
2022-08-12T06:23:45.421Z,280.52
2022-08-12T06:24:41.700Z,286.40
2022-08-12T06:25:37.160Z,280.77
2022-08-12T06:26:32.576Z,284.17
2022-08-12T06:27:28.085Z,285.16
2022-08-12T06:28:23.534Z,282.70
2022-08-12T06:30:07.332Z,281.73
2022-08-12T06:30:27.699Z,278.38
2022-08-12T06:31:27.345Z,287.40
2022-08-12T06:32:06.017Z,287.66
2022-08-12T06:33:18.577Z,311.11
2022-08-12T06:34:01.160Z,315.00
2022-08-12T06:35:25.621Z,315.00
2022-08-12T06:35:47.843Z,312.30
2022-08-12T06:36:40.425Z,304.76
2022-08-12T06:37:35.545Z,306.75
2022-08-12T06:38:30.602Z,314.39
2022-08-12T06:39:25.677Z,331.21
2022-08-12T06:40:21.093Z,344.42
2022-08-12T06:41:16.587Z,325.62
2022-08-12T06:42:33.095Z,329.88
2022-08-12T06:43:08.450Z,334.93
2022-08-12T06:44:07.044Z,335.96
2022-08-12T06:44:57.832Z,333.57
2022-08-12T06:45:52.873Z,339.44
2022-08-12T06:46:47.909Z,355.24
2022-08-12T06:47:46.051Z,365.93
2022-08-12T06:48:41.123Z,368.40
2022-08-12T06:49:36.160Z,362.70
2022-08-12T06:50:31.229Z,374.71
2022-08-12T06:51:26.348Z,358.34
2022-08-12T06:52:21.380Z,372.16
2022-08-12T06:53:16.427Z,383.24
2022-08-12T06:54:11.466Z,382.14
2022-08-12T06:55:06.507Z,371.74
2022-08-12T06:56:01.646Z,394.34
2022-08-12T06:57:57.416Z,401.46
2022-08-12T06:58:05.187Z,397.16
2022-08-12T06:58:47.864Z,398.58
2022-08-12T06:59:42.098Z,404.63
2022-08-12T07:00:37.622Z,404.14
2022-08-12T07:01:33.044Z,396.22
2022-08-12T07:02:28.547Z,403.65
2022-08-12T07:03:23.954Z,402.92
2022-08-12T07:04:36.343Z,370.48
2022-08-12T07:05:15.957Z,339.08
2022-08-12T07:06:10.437Z,343.34
2022-08-12T07:07:05.930Z,342.63
2022-08-12T07:08:01.392Z,352.57
2022-08-12T07:08:57.852Z,360.31
2022-08-12T07:10:04.158Z,365.53
2022-08-12T07:10:48.234Z,345.51
2022-08-12T07:11:42.376Z,337.34
2022-08-12T07:12:38.485Z,330.88
2022-08-12T07:13:32.491Z,330.88
2022-08-12T07:14:27.517Z,347.34
2022-08-12T07:15:22.590Z,336.30
2022-08-12T07:16:17.656Z,324.02
2022-08-12T07:17:13.224Z,353.33
2022-08-12T07:18:08.570Z,381.27
2022-08-12T07:19:04.001Z,388.60
2022-08-12T07:20:03.922Z,399.78
2022-08-12T07:20:55.910Z,408.85
2022-08-12T07:22:02.392Z,412.64
2022-08-12T07:22:46.850Z,409.10
2022-08-12T07:23:41.270Z,401.46
2022-08-12T07:24:36.772Z,349.93
2022-08-12T07:25:40.431Z,329.88
2022-08-12T07:26:32.444Z,312.89
2022-08-12T07:27:26.907Z,319.60
2022-08-12T07:28:22.319Z,343.34
2022-08-12T07:29:17.767Z,349.93
2022-08-12T07:30:13.281Z,330.55
2022-08-12T07:31:08.869Z,330.21
2022-08-12T07:32:04.187Z,347.71
2022-08-12T07:33:01.779Z,352.95
2022-08-12T07:33:55.243Z,358.34
2022-08-12T07:34:50.722Z,367.58
2022-08-12T07:35:46.117Z,364.71
2022-08-12T07:36:41.767Z,370.06
2022-08-12T07:37:37.330Z,373.43
2022-08-12T07:38:32.743Z,368.81
2022-08-12T07:39:28.310Z,391.33
2022-08-12T07:40:23.381Z,415.47
2022-08-12T07:41:18.378Z,440.15
2022-08-12T07:42:13.421Z,445.74
2022-08-12T07:43:08.669Z,440.74
2022-08-12T07:44:04.794Z,371.32
2022-08-12T07:44:58.669Z,370.06
2022-08-12T07:45:53.866Z,376.00
2022-08-12T07:46:48.834Z,384.56
2022-08-12T07:47:43.998Z,421.51
2022-08-12T07:48:39.159Z,433.85
2022-08-12T07:49:34.174Z,418.34
2022-08-12T07:50:30.172Z,443.67
2022-08-12T07:51:24.750Z,471.59
2022-08-12T07:52:19.432Z,460.20
2022-08-12T07:53:14.474Z,437.84
2022-08-12T07:54:09.513Z,446.64
2022-08-12T07:55:04.535Z,438.99
2022-08-12T07:55:59.602Z,479.39
2022-08-12T07:56:54.991Z,499.50
2022-08-12T07:57:50.574Z,482.86
2022-08-12T07:58:47.194Z,457.05
2022-08-12T07:59:40.637Z,443.37
2022-08-12T08:00:35.767Z,439.86
2022-08-12T08:01:30.818Z,439.57
2022-08-12T08:02:27.052Z,453.32
2022-08-12T08:03:20.840Z,439.86
2022-08-12T08:04:19.038Z,438.42
2022-08-12T08:05:10.890Z,449.35
2022-08-12T08:06:05.895Z,373.43
2022-08-12T08:07:01.913Z,388.60
2022-08-12T08:07:55.987Z,413.92
2022-08-12T08:08:50.981Z,474.28
2022-08-12T08:09:46.389Z,480.43
2022-08-12T08:10:41.951Z,469.93
2022-08-12T08:11:37.646Z,463.40
2022-08-12T08:12:32.477Z,494.68
2022-08-12T08:13:27.479Z,487.81
2022-08-12T08:14:22.619Z,495.79
2022-08-12T08:15:17.657Z,511.38
2022-08-12T08:16:12.646Z,548.83
2022-08-12T08:17:07.771Z,559.42
2022-08-12T08:18:02.877Z,552.47
2022-08-12T08:19:00.448Z,546.59
2022-08-12T08:20:04.102Z,540.38
2022-08-12T08:20:51.627Z,510.98
2022-08-12T08:23:10.692Z,657.63
2022-08-12T08:24:06.166Z,610.09
2022-08-12T08:25:01.459Z,609.54
2022-08-12T08:25:56.921Z,656.33
2022-08-12T08:26:52.462Z,661.54
2022-08-12T08:27:47.978Z,701.93
2022-08-12T08:28:43.553Z,718.57
2022-08-12T08:29:39.060Z,711.67
2022-08-12T08:30:34.500Z,676.30
2022-08-12T08:31:30.039Z,681.14
2022-08-12T08:32:25.550Z,715.49
2022-08-12T08:34:04.226Z,737.65
2022-08-12T08:34:49.267Z,742.58
2022-08-12T08:35:12.967Z,769.45
2022-08-12T08:36:10.826Z,769.90
2022-08-12T08:37:07.549Z,760.25
2022-08-12T08:37:58.389Z,733.59
2022-08-12T08:38:58.602Z,740.10
2022-08-12T08:39:50.446Z,730.38
2022-08-12T08:40:44.919Z,753.39
2022-08-12T08:42:14.086Z,754.24
2022-08-12T08:42:36.839Z,752.54
2022-08-12T08:43:43.211Z,754.24
2022-08-12T08:44:27.726Z,814.52
2022-08-12T08:45:22.099Z,844.94
2022-08-12T08:46:17.621Z,871.98
2022-08-12T08:47:13.159Z,921.96
2022-08-12T08:48:08.569Z,964.59
2022-08-12T08:49:04.230Z,944.80
2022-08-12T08:49:59.630Z,885.28
2022-08-12T08:51:04.456Z,913.13
2022-08-12T08:51:51.750Z,923.88
2022-08-12T08:52:46.332Z,902.03
2022-08-12T08:53:41.694Z,887.04
2022-08-12T08:54:37.225Z,897.78
2022-08-12T08:55:54.268Z,952.89
2022-08-12T08:56:29.219Z,972.32
2022-08-12T08:57:23.706Z,999.25
2022-08-12T08:58:20.104Z,1015.98
2022-08-12T08:59:14.375Z,1022.99
2022-08-12T09:00:09.890Z,1051.18
2022-08-12T09:01:06.395Z,1022.99
2022-08-12T09:02:00.811Z,1048.70
2022-08-12T09:02:59.263Z,1082.72
2022-08-12T09:05:08.432Z,1164.92
2022-08-12T09:05:13.510Z,1190.90
2022-08-12T09:06:02.138Z,1135.20
2022-08-12T09:06:38.832Z,1150.86
2022-08-12T09:07:51.542Z,1118.09
2022-08-12T09:08:29.702Z,1068.00
2022-08-12T09:09:24.072Z,1142.98
2022-08-12T09:10:30.617Z,1210.33
2022-08-12T09:12:06.401Z,1178.29
2022-08-12T09:12:13.273Z,1109.73
2022-08-12T09:13:06.283Z,1085.37
2022-08-12T09:14:12.411Z,1128.49
2022-08-12T09:14:57.801Z,1155.84
2022-08-12T09:16:50.116Z,1238.40
2022-08-12T09:17:43.449Z,1176.21
2022-08-12T09:18:38.531Z,1106.96
2022-08-12T09:19:33.931Z,1146.91
2022-08-12T09:20:29.649Z,1155.84
2022-08-12T09:21:25.018Z,1193.03
2022-08-12T09:22:20.835Z,1265.40
2022-08-12T09:23:59.956Z,1380.56
2022-08-12T09:24:11.956Z,1376.29
2022-08-12T09:25:06.443Z,1310.11
2022-08-12T09:26:58.939Z,1304.98
2022-08-12T09:28:03.862Z,1195.17
2022-08-12T09:28:49.327Z,1137.14
2022-08-12T09:30:09.750Z,1176.21
2022-08-12T09:30:42.151Z,1223.65
2022-08-12T09:32:07.740Z,1308.82
2022-08-12T09:33:04.962Z,1432.40
2022-08-12T09:34:25.933Z,1540.68
2022-08-12T09:34:26.426Z,1610.37
2022-08-12T09:35:22.113Z,1604.57
2022-08-12T09:36:12.970Z,1600.72
2022-08-12T09:37:18.850Z,1602.64
2022-08-12T09:38:03.901Z,1618.18
2022-08-12T09:38:58.941Z,1565.06
2022-08-12T09:40:06.575Z,1617.20
2022-08-12T09:41:01.780Z,1688.81
2022-08-12T09:42:09.882Z,1722.58
2022-08-12T09:42:54.346Z,1729.28
2022-08-12T09:43:36.367Z,1711.54
2022-08-12T09:44:38.886Z,1597.85
2022-08-12T09:46:06.582Z,1493.29
2022-08-12T09:46:25.427Z,1557.76
2022-08-12T09:47:17.128Z,1633.03
2022-08-12T09:48:20.278Z,1600.72
2022-08-12T09:49:16.287Z,1465.42
2022-08-12T09:50:04.397Z,1462.21
2022-08-12T09:50:59.429Z,1507.62
2022-08-12T09:51:54.187Z,1467.03
2022-08-12T09:52:49.713Z,1531.84
2022-08-12T09:53:45.743Z,1683.48
2022-08-12T09:54:42.941Z,1611.35
2022-08-12T09:55:59.575Z,1717.04
2022-08-12T09:56:59.581Z,1841.38
2022-08-12T09:58:45.198Z,1936.19
2022-08-12T09:58:58.540Z,1936.19
2022-08-12T10:00:15.920Z,1907.14
2022-08-12T10:00:19.489Z,1867.13
2022-08-12T10:01:14.841Z,1794.35
2022-08-12T10:02:42.675Z,1781.19
2022-08-12T10:03:01.100Z,1872.37
2022-08-12T10:04:03.873Z,2031.96
2022-08-12T10:04:51.535Z,2084.31
2022-08-12T10:06:20.326Z,2167.21
2022-08-12T10:06:54.758Z,2228.72
2022-08-12T10:07:39.391Z,2066.56
2022-08-12T10:08:31.661Z,2100.71
2022-08-12T10:09:57.373Z,2109.00
2022-08-12T10:10:25.104Z,2102.36
2022-08-12T10:11:20.460Z,1973.39
2022-08-12T10:12:13.397Z,1929.19
2022-08-12T10:13:11.532Z,1846.47
2022-08-12T10:14:04.308Z,1832.53
2022-08-12T10:14:59.674Z,1776.45
2022-08-12T10:16:02.121Z,1749.67
2022-08-12T10:16:51.574Z,1732.64
2022-08-12T10:18:05.915Z,1864.53
2022-08-12T10:18:52.011Z,1997.01
2022-08-12T10:19:38.089Z,2047.55
2022-08-12T10:20:32.485Z,2049.12
2022-08-12T10:21:36.380Z,2132.59
2022-08-12T10:22:40.362Z,2256.97
2022-08-12T10:23:19.642Z,2305.70
2022-08-12T10:24:15.253Z,2386.06
2022-08-12T10:25:17.109Z,2680.72
2022-08-12T10:26:37.976Z,2766.84
2022-08-12T10:27:06.090Z,2746.91
2022-08-12T10:28:03.940Z,2822.41
2022-08-12T10:29:02.062Z,2855.61
2022-08-12T10:30:39.036Z,2846.48
2022-08-12T10:30:46.908Z,2953.54
2022-08-12T10:31:47.492Z,3111.89
2022-08-12T10:32:44.747Z,3101.04
2022-08-12T10:33:31.565Z,3060.17
2022-08-12T10:34:26.476Z,3111.89
2022-08-12T10:35:19.599Z,3148.58
2022-08-12T10:36:15.171Z,3182.36
2022-08-12T10:38:07.369Z,3258.08
2022-08-12T10:38:33.655Z,3113.70
2022-08-12T10:39:02.597Z,2696.97
2022-08-12T10:40:03.137Z,2761.12
2022-08-12T10:40:53.492Z,3049.69
2022-08-12T10:41:57.955Z,3278.08
2022-08-12T10:42:45.981Z,3517.79
2022-08-12T10:43:55.005Z,3574.30
2022-08-12T10:44:35.295Z,3401.27
2022-08-12T10:45:30.579Z,3358.49
2022-08-12T10:46:31.191Z,3345.86
2022-08-12T10:47:26.027Z,3322.96
2022-08-12T10:48:21.184Z,3294.26
2022-08-12T10:50:02.536Z,3290.20
2022-08-12T10:50:35.866Z,3260.07
2022-08-12T10:51:49.052Z,3268.05
2022-08-12T10:52:32.892Z,3222.69
2022-08-12T10:52:54.375Z,3203.36
2022-08-12T10:53:48.757Z,3497.05
2022-08-12T10:54:44.344Z,3522.43
2022-08-12T10:55:40.654Z,3420.88
2022-08-12T10:56:35.496Z,3209.14
2022-08-12T10:58:15.401Z,3278.08
2022-08-12T10:58:30.898Z,3373.34
2022-08-12T10:59:21.453Z,3520.10
2022-08-12T11:00:34.447Z,3622.79
2022-08-12T11:01:49.636Z,3625.25
2022-08-12T11:04:19.846Z,3605.67
2022-08-12T11:04:25.696Z,3543.46
2022-08-12T11:04:28.596Z,3808.84
2022-08-12T11:04:55.739Z,3979.14
2022-08-12T11:07:07.347Z,3690.39
2022-08-12T11:07:10.016Z,3784.55
2022-08-12T11:08:34.449Z,3454.07
2022-08-12T11:08:43.202Z,3476.56
2022-08-12T11:09:41.719Z,3327.10
2022-08-12T11:10:28.153Z,3252.13
2022-08-12T11:12:07.662Z,3310.60
2022-08-12T11:12:55.450Z,3314.71
2022-08-12T11:13:14.582Z,3394.79
2022-08-12T11:14:49.862Z,3379.75
2022-08-12T11:15:19.320Z,3300.37
2022-08-12T11:16:03.575Z,3337.50
2022-08-12T11:17:33.982Z,3394.79
2022-08-12T11:17:53.677Z,3381.89
2022-08-12T11:18:45.953Z,3412.14
2022-08-12T11:19:41.618Z,3718.66
2022-08-12T11:20:36.860Z,3979.14
2022-08-12T11:21:56.688Z,4085.69
2022-08-12T11:22:28.722Z,4171.88
2022-08-12T11:23:24.616Z,4091.95
2022-08-12T11:24:31.706Z,4201.42
2022-08-12T11:25:15.263Z,4337.94
2022-08-12T11:26:09.686Z,4438.90
2022-08-12T11:27:07.732Z,4398.68
2022-08-12T11:28:00.653Z,4438.90
2022-08-12T11:28:59.277Z,4427.86
2022-08-12T11:30:02.137Z,4464.88
2022-08-12T11:30:47.910Z,4218.01
2022-08-12T11:31:56.118Z,3844.49
2022-08-12T11:32:39.564Z,4070.12
2022-08-12T11:34:06.139Z,4272.00
2022-08-12T11:34:53.583Z,4251.59
2022-08-12T11:35:24.831Z,4238.10
2022-08-12T11:36:22.148Z,4323.89
2022-08-12T11:37:25.917Z,4405.94